sensor_id;sensor_type;location;lat;lon;timestamp;temperature;humidity
10388;DHT22;5240;51.128;4.566;2023-02-01T00:00:20;5.60;99.90
10388;DHT22;5240;51.128;4.566;2023-02-01T00:02:47;5.60;99.90
10388;DHT22;5240;51.128;4.566;2023-02-01T00:05:14;5.60;99.90
10388;DHT22;5240;51.128;4.566;2023-02-01T00:07:41;5.70;99.90
10388;DHT22;5240;51.128;4.566;2023-02-01T00:10:12;5.70;99.90
10388;DHT22;5240;51.128;4.566;2023-02-01T00:12:39;5.80;99.90
10388;DHT22;5240;51.128;4.566;2023-02-01T00:15:07;5.80;99.90
10388;DHT22;5240;51.128;4.566;2023-02-01T00:17:34;5.80;99.90
10388;DHT22;5240;51.128;4.566;2023-02-01T00:20:01;5.90;99.90
10388;DHT22;5240;51.128;4.566;2023-02-01T00:22:28;6.00;99.90
10388;DHT22;5240;51.128;4.566;2023-02-01T00:24:55;6.00;99.90
10388;DHT22;5240;51.128;4.566;2023-02-01T00:27:24;6.00;99.90
10388;DHT22;5240;51.128;4.566;2023-02-01T00:29:51;6.00;99.90
10388;DHT22;5240;51.128;4.566;2023-02-01T00:32:18;6.00;99.90
10388;DHT22;5240;51.128;4.566;2023-02-01T00:34:45;6.00;99.90
10388;DHT22;5240;51.128;4.566;2023-02-01T00:37:12;5.90;99.90
10388;DHT22;5240;51.128;4.566;2023-02-01T00:39:39;5.90;99.90
10388;DHT22;5240;51.128;4.566;2023-02-01T00:42:06;5.90;99.90
10388;DHT22;5240;51.128;4.566;2023-02-01T00:44:34;5.80;99.90
10388;DHT22;5240;51.128;4.566;2023-02-01T00:47:01;5.70;99.90
10388;DHT22;5240;51.128;4.566;2023-02-01T00:49:28;5.70;99.90
10388;DHT22;5240;51.128;4.566;2023-02-01T00:51:55;5.60;99.90
10388;DHT22;5240;51.128;4.566;2023-02-01T00:54:22;5.60;99.90
10388;DHT22;5240;51.128;4.566;2023-02-01T00:56:49;5.50;99.90
10388;DHT22;5240;51.128;4.566;2023-02-01T00:59:16;5.50;99.90
10388;DHT22;5240;51.128;4.566;2023-02-01T01:01:45;5.50;99.90
10388;DHT22;5240;51.128;4.566;2023-02-01T01:04:12;5.50;99.90
10388;DHT22;5240;51.128;4.566;2023-02-01T01:06:39;5.50;99.90
10388;DHT22;5240;51.128;4.566;2023-02-01T01:09:07;5.50;99.90
10388;DHT22;5240;51.128;4.566;2023-02-01T01:11:36;5.50;99.90
10388;DHT22;5240;51.128;4.566;2023-02-01T01:14:04;5.40;99.90
10388;DHT22;5240;51.128;4.566;2023-02-01T01:16:32;5.40;99.90
10388;DHT22;5240;51.128;4.566;2023-02-01T01:19:02;5.40;99.90
10388;DHT22;5240;51.128;4.566;2023-02-01T01:21:30;5.40;99.90
10388;DHT22;5240;51.128;4.566;2023-02-01T01:23:57;5.30;99.90
10388;DHT22;5240;51.128;4.566;2023-02-01T01:26:25;5.30;99.90
10388;DHT22;5240;51.128;4.566;2023-02-01T01:28:55;5.30;99.90
10388;DHT22;5240;51.128;4.566;2023-02-01T01:31:23;5.30;99.90
10388;DHT22;5240;51.128;4.566;2023-02-01T01:33:51;5.30;99.90
10388;DHT22;5240;51.128;4.566;2023-02-01T01:36:21;5.20;99.90
10388;DHT22;5240;51.128;4.566;2023-02-01T01:38:48;5.20;99.90
10388;DHT22;5240;51.128;4.566;2023-02-01T01:41:18;5.20;99.90
10388;DHT22;5240;51.128;4.566;2023-02-01T01:43:53;5.20;99.90
10388;DHT22;5240;51.128;4.566;2023-02-01T01:46:22;5.10;99.90
10388;DHT22;5240;51.128;4.566;2023-02-01T01:48:53;5.10;99.90
10388;DHT22;5240;51.128;4.566;2023-02-01T01:51:25;5.00;99.90
10388;DHT22;5240;51.128;4.566;2023-02-01T01:53:59;5.00;99.90
10388;DHT22;5240;51.128;4.566;2023-02-01T01:56:28;5.00;99.90
10388;DHT22;5240;51.128;4.566;2023-02-01T01:58:56;5.00;99.90
10388;DHT22;5240;51.128;4.566;2023-02-01T02:01:23;4.90;99.90
10388;DHT22;5240;51.128;4.566;2023-02-01T02:03:51;4.90;99.90
10388;DHT22;5240;51.128;4.566;2023-02-01T02:06:27;4.90;99.90
10388;DHT22;5240;51.128;4.566;2023-02-01T02:08:56;4.90;99.90
10388;DHT22;5240;51.128;4.566;2023-02-01T02:11:23;4.80;99.90
10388;DHT22;5240;51.128;4.566;2023-02-01T02:13:52;4.80;99.90
10388;DHT22;5240;51.128;4.566;2023-02-01T02:16:52;4.80;99.90
10388;DHT22;5240;51.128;4.566;2023-02-01T02:19:54;4.80;99.90
10388;DHT22;5240;51.128;4.566;2023-02-01T02:22:55;4.80;99.90
10388;DHT22;5240;51.128;4.566;2023-02-01T02:25:52;4.70;99.90
10388;DHT22;5240;51.128;4.566;2023-02-01T02:31:36;4.70;99.90
10388;DHT22;5240;51.128;4.566;2023-02-01T02:34:14;4.70;99.90
10388;DHT22;5240;51.128;4.566;2023-02-01T02:36:51;4.70;99.90
10388;DHT22;5240;51.128;4.566;2023-02-01T02:39:25;4.70;99.90
10388;DHT22;5240;51.128;4.566;2023-02-01T02:42:02;4.70;99.90
10388;DHT22;5240;51.128;4.566;2023-02-01T02:44:56;4.70;99.90
10388;DHT22;5240;51.128;4.566;2023-02-01T02:47:46;4.70;99.90
10388;DHT22;5240;51.128;4.566;2023-02-01T02:50:24;4.70;99.90
10388;DHT22;5240;51.128;4.566;2023-02-01T02:53:14;4.60;99.90
10388;DHT22;5240;51.128;4.566;2023-02-01T02:55:59;4.60;99.90
10388;DHT22;5240;51.128;4.566;2023-02-01T02:58:46;4.60;99.90
10388;DHT22;5240;51.128;4.566;2023-02-01T03:01:30;4.60;99.90
10388;DHT22;5240;51.128;4.566;2023-02-01T03:04:16;4.60;99.90
10388;DHT22;5240;51.128;4.566;2023-02-01T03:06:45;4.70;99.90
10388;DHT22;5240;51.128;4.566;2023-02-01T03:09:18;4.70;99.90
10388;DHT22;5240;51.128;4.566;2023-02-01T03:11:49;4.70;99.90
10388;DHT22;5240;51.128;4.566;2023-02-01T03:14:36;4.70;99.90
10388;DHT22;5240;51.128;4.566;2023-02-01T03:17:09;4.80;99.90
10388;DHT22;5240;51.128;4.566;2023-02-01T03:19:39;4.80;99.90
10388;DHT22;5240;51.128;4.566;2023-02-01T03:22:12;4.90;99.90
10388;DHT22;5240;51.128;4.566;2023-02-01T03:24:43;4.90;99.90
10388;DHT22;5240;51.128;4.566;2023-02-01T03:27:14;4.90;99.90
10388;DHT22;5240;51.128;4.566;2023-02-01T03:29:48;4.90;99.90
10388;DHT22;5240;51.128;4.566;2023-02-01T03:32:17;5.00;99.90
10388;DHT22;5240;51.128;4.566;2023-02-01T03:34:44;5.00;99.90
10388;DHT22;5240;51.128;4.566;2023-02-01T03:37:15;5.00;99.90
10388;DHT22;5240;51.128;4.566;2023-02-01T03:39:47;5.00;99.90
10388;DHT22;5240;51.128;4.566;2023-02-01T03:42:18;5.00;99.90
10388;DHT22;5240;51.128;4.566;2023-02-01T03:44:49;5.00;99.90
10388;DHT22;5240;51.128;4.566;2023-02-01T03:47:21;5.00;99.90
10388;DHT22;5240;51.128;4.566;2023-02-01T03:49:51;5.00;99.90
10388;DHT22;5240;51.128;4.566;2023-02-01T03:52:24;5.00;99.90
10388;DHT22;5240;51.128;4.566;2023-02-01T03:54:53;5.00;99.90
10388;DHT22;5240;51.128;4.566;2023-02-01T03:57:25;4.90;99.90
10388;DHT22;5240;51.128;4.566;2023-02-01T03:59:53;4.90;99.90
10388;DHT22;5240;51.128;4.566;2023-02-01T04:02:20;4.90;99.90
10388;DHT22;5240;51.128;4.566;2023-02-01T04:04:47;4.80;99.90
10388;DHT22;5240;51.128;4.566;2023-02-01T04:07:14;4.80;99.90
10388;DHT22;5240;51.128;4.566;2023-02-01T04:09:43;4.80;99.90
10388;DHT22;5240;51.128;4.566;2023-02-01T04:12:10;4.80;99.90
10388;DHT22;5240;51.128;4.566;2023-02-01T04:14:37;4.80;99.90
10388;DHT22;5240;51.128;4.566;2023-02-01T04:17:04;4.80;99.90
10388;DHT22;5240;51.128;4.566;2023-02-01T04:19:31;4.80;99.90
10388;DHT22;5240;51.128;4.566;2023-02-01T04:21:58;4.80;99.90
10388;DHT22;5240;51.128;4.566;2023-02-01T04:24:25;4.80;99.90
10388;DHT22;5240;51.128;4.566;2023-02-01T04:26:54;4.80;99.90
10388;DHT22;5240;51.128;4.566;2023-02-01T04:29:21;4.90;99.90
10388;DHT22;5240;51.128;4.566;2023-02-01T04:31:48;4.80;99.90
10388;DHT22;5240;51.128;4.566;2023-02-01T04:34:15;4.90;99.90
10388;DHT22;5240;51.128;4.566;2023-02-01T04:36:42;4.80;99.90
10388;DHT22;5240;51.128;4.566;2023-02-01T04:39:10;4.80;99.90
10388;DHT22;5240;51.128;4.566;2023-02-01T04:41:37;4.90;99.90
10388;DHT22;5240;51.128;4.566;2023-02-01T04:44:05;4.90;99.90
10388;DHT22;5240;51.128;4.566;2023-02-01T04:46:34;4.80;99.90
10388;DHT22;5240;51.128;4.566;2023-02-01T04:49:01;4.90;99.90
10388;DHT22;5240;51.128;4.566;2023-02-01T04:51:28;4.90;99.90
10388;DHT22;5240;51.128;4.566;2023-02-01T04:53:55;4.90;99.90
10388;DHT22;5240;51.128;4.566;2023-02-01T04:56:22;4.80;99.90
10388;DHT22;5240;51.128;4.566;2023-02-01T04:58:49;4.80;99.90
10388;DHT22;5240;51.128;4.566;2023-02-01T05:01:18;4.80;99.90
10388;DHT22;5240;51.128;4.566;2023-02-01T05:03:45;4.80;99.90
10388;DHT22;5240;51.128;4.566;2023-02-01T05:06:12;4.80;99.90
10388;DHT22;5240;51.128;4.566;2023-02-01T05:08:39;4.80;99.90
10388;DHT22;5240;51.128;4.566;2023-02-01T05:11:06;4.80;99.90
10388;DHT22;5240;51.128;4.566;2023-02-01T05:13:53;4.80;99.90
10388;DHT22;5240;51.128;4.566;2023-02-01T05:16:20;4.80;99.90
10388;DHT22;5240;51.128;4.566;2023-02-01T05:18:48;4.80;99.90
10388;DHT22;5240;51.128;4.566;2023-02-01T05:21:15;4.80;99.90
10388;DHT22;5240;51.128;4.566;2023-02-01T05:23:42;4.80;99.90
10388;DHT22;5240;51.128;4.566;2023-02-01T05:26:38;4.80;99.90
10388;DHT22;5240;51.128;4.566;2023-02-01T05:29:06;4.80;99.90
10388;DHT22;5240;51.128;4.566;2023-02-01T05:31:35;4.80;99.90
10388;DHT22;5240;51.128;4.566;2023-02-01T05:34:02;4.70;99.90
10388;DHT22;5240;51.128;4.566;2023-02-01T05:36:30;4.70;99.90
10388;DHT22;5240;51.128;4.566;2023-02-01T05:38:57;4.70;99.90
10388;DHT22;5240;51.128;4.566;2023-02-01T05:41:24;4.70;99.90
10388;DHT22;5240;51.128;4.566;2023-02-01T05:43:51;4.70;99.90
10388;DHT22;5240;51.128;4.566;2023-02-01T05:46:18;4.60;99.90
10388;DHT22;5240;51.128;4.566;2023-02-01T05:48:47;4.70;99.90
10388;DHT22;5240;51.128;4.566;2023-02-01T05:51:14;4.70;99.90
10388;DHT22;5240;51.128;4.566;2023-02-01T05:53:41;4.60;99.90
10388;DHT22;5240;51.128;4.566;2023-02-01T05:56:08;4.60;99.90
10388;DHT22;5240;51.128;4.566;2023-02-01T05:58:35;4.70;99.90
10388;DHT22;5240;51.128;4.566;2023-02-01T06:01:03;4.60;99.90
10388;DHT22;5240;51.128;4.566;2023-02-01T06:03:30;4.70;99.90
10388;DHT22;5240;51.128;4.566;2023-02-01T06:05:58;4.70;99.90
10388;DHT22;5240;51.128;4.566;2023-02-01T06:08:26;4.60;99.90
10388;DHT22;5240;51.128;4.566;2023-02-01T06:10:57;4.70;99.90
10388;DHT22;5240;51.128;4.566;2023-02-01T06:13:24;4.70;99.90
10388;DHT22;5240;51.128;4.566;2023-02-01T06:15:51;4.60;99.90
10388;DHT22;5240;51.128;4.566;2023-02-01T06:18:19;4.70;99.90
10388;DHT22;5240;51.128;4.566;2023-02-01T06:20:52;4.70;99.90
10388;DHT22;5240;51.128;4.566;2023-02-01T06:23:20;4.70;99.90
10388;DHT22;5240;51.128;4.566;2023-02-01T06:25:50;4.70;99.90
10388;DHT22;5240;51.128;4.566;2023-02-01T06:28:18;4.60;99.90
10388;DHT22;5240;51.128;4.566;2023-02-01T06:30:45;4.60;99.90
10388;DHT22;5240;51.128;4.566;2023-02-01T06:33:13;4.60;99.90
10388;DHT22;5240;51.128;4.566;2023-02-01T06:35:41;4.60;99.90
10388;DHT22;5240;51.128;4.566;2023-02-01T06:38:10;4.70;99.90
10388;DHT22;5240;51.128;4.566;2023-02-01T06:40:39;4.60;99.90
10388;DHT22;5240;51.128;4.566;2023-02-01T06:43:06;4.60;99.90
10388;DHT22;5240;51.128;4.566;2023-02-01T06:45:33;4.60;99.90
10388;DHT22;5240;51.128;4.566;2023-02-01T06:48:00;4.60;99.90
10388;DHT22;5240;51.128;4.566;2023-02-01T06:50:27;4.60;99.90
10388;DHT22;5240;51.128;4.566;2023-02-01T06:52:55;4.60;99.90
10388;DHT22;5240;51.128;4.566;2023-02-01T06:55:22;4.60;99.90
10388;DHT22;5240;51.128;4.566;2023-02-01T06:57:54;4.60;99.90
10388;DHT22;5240;51.128;4.566;2023-02-01T07:00:22;4.60;99.90
10388;DHT22;5240;51.128;4.566;2023-02-01T07:02:49;4.60;99.90
10388;DHT22;5240;51.128;4.566;2023-02-01T07:05:17;4.60;99.90
10388;DHT22;5240;51.128;4.566;2023-02-01T07:07:44;4.50;99.90
10388;DHT22;5240;51.128;4.566;2023-02-01T07:10:11;4.60;99.90
10388;DHT22;5240;51.128;4.566;2023-02-01T07:12:39;4.60;99.90
10388;DHT22;5240;51.128;4.566;2023-02-01T07:15:08;4.60;99.90
10388;DHT22;5240;51.128;4.566;2023-02-01T07:17:35;4.50;99.90
10388;DHT22;5240;51.128;4.566;2023-02-01T07:20:03;4.60;99.90
10388;DHT22;5240;51.128;4.566;2023-02-01T07:22:30;4.60;99.90
10388;DHT22;5240;51.128;4.566;2023-02-01T07:24:57;4.60;99.90
10388;DHT22;5240;51.128;4.566;2023-02-01T07:27:25;4.60;99.90
10388;DHT22;5240;51.128;4.566;2023-02-01T07:29:55;4.60;99.90
10388;DHT22;5240;51.128;4.566;2023-02-01T07:32:30;4.60;99.90
10388;DHT22;5240;51.128;4.566;2023-02-01T07:34:57;4.70;99.90
10388;DHT22;5240;51.128;4.566;2023-02-01T07:37:25;4.60;99.90
10388;DHT22;5240;51.128;4.566;2023-02-01T07:39:52;4.70;99.90
10388;DHT22;5240;51.128;4.566;2023-02-01T07:42:19;4.60;99.90
10388;DHT22;5240;51.128;4.566;2023-02-01T07:44:46;4.60;99.90
10388;DHT22;5240;51.128;4.566;2023-02-01T07:47:16;4.60;99.90
10388;DHT22;5240;51.128;4.566;2023-02-01T07:49:45;4.60;99.90
10388;DHT22;5240;51.128;4.566;2023-02-01T07:52:12;4.70;99.90
10388;DHT22;5240;51.128;4.566;2023-02-01T07:54:42;4.80;99.90
10388;DHT22;5240;51.128;4.566;2023-02-01T07:57:09;4.80;99.90
10388;DHT22;5240;51.128;4.566;2023-02-01T07:59:38;4.90;99.90
10388;DHT22;5240;51.128;4.566;2023-02-01T08:02:26;5.00;99.90
10388;DHT22;5240;51.128;4.566;2023-02-01T08:04:54;5.10;99.90
10388;DHT22;5240;51.128;4.566;2023-02-01T08:07:21;5.10;99.90
10388;DHT22;5240;51.128;4.566;2023-02-01T08:09:48;5.20;99.90
10388;DHT22;5240;51.128;4.566;2023-02-01T08:12:15;5.20;99.90
10388;DHT22;5240;51.128;4.566;2023-02-01T08:14:43;5.30;99.90
10388;DHT22;5240;51.128;4.566;2023-02-01T08:17:10;5.40;99.90
10388;DHT22;5240;51.128;4.566;2023-02-01T08:19:38;5.50;99.90
10388;DHT22;5240;51.128;4.566;2023-02-01T08:22:06;5.50;99.90
10388;DHT22;5240;51.128;4.566;2023-02-01T08:29:44;5.50;99.90
10388;DHT22;5240;51.128;4.566;2023-02-01T08:32:13;5.50;99.90
10388;DHT22;5240;51.128;4.566;2023-02-01T08:34:40;5.50;99.90
10388;DHT22;5240;51.128;4.566;2023-02-01T08:37:09;5.50;99.90
10388;DHT22;5240;51.128;4.566;2023-02-01T08:39:36;5.50;99.90
10388;DHT22;5240;51.128;4.566;2023-02-01T08:42:03;5.60;99.90
10388;DHT22;5240;51.128;4.566;2023-02-01T08:44:48;5.60;99.90
10388;DHT22;5240;51.128;4.566;2023-02-01T08:47:16;5.60;99.90
10388;DHT22;5240;51.128;4.566;2023-02-01T08:49:45;5.70;99.90
10388;DHT22;5240;51.128;4.566;2023-02-01T08:52:15;5.70;99.90
10388;DHT22;5240;51.128;4.566;2023-02-01T08:54:42;5.70;99.90
10388;DHT22;5240;51.128;4.566;2023-02-01T08:57:09;5.80;99.90
10388;DHT22;5240;51.128;4.566;2023-02-01T08:59:36;5.80;99.90
10388;DHT22;5240;51.128;4.566;2023-02-01T09:02:03;5.90;99.90
10388;DHT22;5240;51.128;4.566;2023-02-01T09:04:30;5.90;99.90
10388;DHT22;5240;51.128;4.566;2023-02-01T09:06:58;6.00;99.90
10388;DHT22;5240;51.128;4.566;2023-02-01T09:09:27;6.10;99.90
10388;DHT22;5240;51.128;4.566;2023-02-01T09:11:55;6.10;99.90
10388;DHT22;5240;51.128;4.566;2023-02-01T09:14:22;6.20;99.90
10388;DHT22;5240;51.128;4.566;2023-02-01T09:16:49;6.30;99.90
10388;DHT22;5240;51.128;4.566;2023-02-01T09:19:16;6.40;99.90
10388;DHT22;5240;51.128;4.566;2023-02-01T09:21:43;6.50;99.90
10388;DHT22;5240;51.128;4.566;2023-02-01T09:26:43;6.70;99.90
10388;DHT22;5240;51.128;4.566;2023-02-01T09:29:24;7.00;99.90
10388;DHT22;5240;51.128;4.566;2023-02-01T09:31:51;7.20;99.90
10388;DHT22;5240;51.128;4.566;2023-02-01T09:34:18;7.40;99.90
10388;DHT22;5240;51.128;4.566;2023-02-01T09:36:46;7.60;99.90
10388;DHT22;5240;51.128;4.566;2023-02-01T09:39:13;7.70;99.90
10388;DHT22;5240;51.128;4.566;2023-02-01T09:41:51;7.90;99.90
10388;DHT22;5240;51.128;4.566;2023-02-01T09:47:17;8.50;99.90
10388;DHT22;5240;51.128;4.566;2023-02-01T09:49:50;8.90;99.90
10388;DHT22;5240;51.128;4.566;2023-02-01T09:52:25;9.10;99.90
10388;DHT22;5240;51.128;4.566;2023-02-01T09:54:57;9.10;99.90
10388;DHT22;5240;51.128;4.566;2023-02-01T09:57:36;9.10;99.90
10388;DHT22;5240;51.128;4.566;2023-02-01T10:00:15;9.20;99.90
10388;DHT22;5240;51.128;4.566;2023-02-01T10:02:43;9.40;99.90
10388;DHT22;5240;51.128;4.566;2023-02-01T10:05:15;9.70;99.90
10388;DHT22;5240;51.128;4.566;2023-02-01T10:07:51;9.70;99.90
10388;DHT22;5240;51.128;4.566;2023-02-01T10:10:29;9.30;99.90
10388;DHT22;5240;51.128;4.566;2023-02-01T10:16:45;8.70;99.90
10388;DHT22;5240;51.128;4.566;2023-02-01T10:24:42;8.30;99.90
10388;DHT22;5240;51.128;4.566;2023-02-01T10:27:14;8.30;99.90
10388;DHT22;5240;51.128;4.566;2023-02-01T10:29:50;8.30;99.90
10388;DHT22;5240;51.128;4.566;2023-02-01T10:32:21;8.30;99.90
10388;DHT22;5240;51.128;4.566;2023-02-01T10:34:53;8.30;99.90
10388;DHT22;5240;51.128;4.566;2023-02-01T10:37:27;8.30;99.90
10388;DHT22;5240;51.128;4.566;2023-02-01T10:39:56;8.30;99.90
10388;DHT22;5240;51.128;4.566;2023-02-01T10:42:27;8.30;99.90
10388;DHT22;5240;51.128;4.566;2023-02-01T10:44:58;8.30;99.90
10388;DHT22;5240;51.128;4.566;2023-02-01T10:47:26;8.50;99.90
10388;DHT22;5240;51.128;4.566;2023-02-01T10:50:00;8.60;99.90
10388;DHT22;5240;51.128;4.566;2023-02-01T10:52:39;8.70;99.90
10388;DHT22;5240;51.128;4.566;2023-02-01T10:55:34;8.80;99.90
10388;DHT22;5240;51.128;4.566;2023-02-01T10:58:07;8.80;99.90
10388;DHT22;5240;51.128;4.566;2023-02-01T11:00:47;8.70;99.90
10388;DHT22;5240;51.128;4.566;2023-02-01T11:06:24;8.80;99.90
10388;DHT22;5240;51.128;4.566;2023-02-01T11:08:57;8.90;99.90
10388;DHT22;5240;51.128;4.566;2023-02-01T11:11:26;9.00;99.90
10388;DHT22;5240;51.128;4.566;2023-02-01T11:13:58;9.10;99.90
10388;DHT22;5240;51.128;4.566;2023-02-01T11:16:35;9.20;99.90
10388;DHT22;5240;51.128;4.566;2023-02-01T11:19:06;9.30;99.90
10388;DHT22;5240;51.128;4.566;2023-02-01T11:21:34;9.30;99.90
10388;DHT22;5240;51.128;4.566;2023-02-01T11:24:02;9.30;99.90
10388;DHT22;5240;51.128;4.566;2023-02-01T11:26:31;9.40;99.90
10388;DHT22;5240;51.128;4.566;2023-02-01T11:29:02;9.40;99.90
10388;DHT22;5240;51.128;4.566;2023-02-01T11:31:32;9.40;99.90
10388;DHT22;5240;51.128;4.566;2023-02-01T11:34:07;9.60;99.90
10388;DHT22;5240;51.128;4.566;2023-02-01T11:36:36;9.70;99.90
10388;DHT22;5240;51.128;4.566;2023-02-01T11:39:23;9.70;99.90
10388;DHT22;5240;51.128;4.566;2023-02-01T11:42:01;9.60;99.90
10388;DHT22;5240;51.128;4.566;2023-02-01T11:44:34;9.50;99.90
10388;DHT22;5240;51.128;4.566;2023-02-01T11:47:23;9.60;99.90
10388;DHT22;5240;51.128;4.566;2023-02-01T11:49:52;9.60;99.90
10388;DHT22;5240;51.128;4.566;2023-02-01T11:52:40;9.60;99.90
10388;DHT22;5240;51.128;4.566;2023-02-01T11:55:38;9.70;99.90
10388;DHT22;5240;51.128;4.566;2023-02-01T12:01:14;9.40;99.90
10388;DHT22;5240;51.128;4.566;2023-02-01T12:06:53;9.40;99.90
10388;DHT22;5240;51.128;4.566;2023-02-01T12:09:38;9.50;99.90
10388;DHT22;5240;51.128;4.566;2023-02-01T12:12:17;9.60;99.90
10388;DHT22;5240;51.128;4.566;2023-02-01T12:15:18;9.70;99.90
10388;DHT22;5240;51.128;4.566;2023-02-01T12:18:02;9.70;99.90
10388;DHT22;5240;51.128;4.566;2023-02-01T12:20:53;9.70;99.90
10388;DHT22;5240;51.128;4.566;2023-02-01T12:23:42;9.70;99.90
10388;DHT22;5240;51.128;4.566;2023-02-01T12:26:27;9.70;99.90
10388;DHT22;5240;51.128;4.566;2023-02-01T12:29:35;9.80;99.90
10388;DHT22;5240;51.128;4.566;2023-02-01T12:32:15;9.70;99.90
10388;DHT22;5240;51.128;4.566;2023-02-01T12:35:02;9.70;99.90
10388;DHT22;5240;51.128;4.566;2023-02-01T12:37:51;9.70;99.90
10388;DHT22;5240;51.128;4.566;2023-02-01T12:40:32;9.80;99.90
10388;DHT22;5240;51.128;4.566;2023-02-01T12:43:08;9.90;99.90
10388;DHT22;5240;51.128;4.566;2023-02-01T12:45:40;9.80;99.90
10388;DHT22;5240;51.128;4.566;2023-02-01T12:48:23;9.70;99.90
10388;DHT22;5240;51.128;4.566;2023-02-01T12:50:53;9.60;99.90
10388;DHT22;5240;51.128;4.566;2023-02-01T12:53:26;9.60;99.90
10388;DHT22;5240;51.128;4.566;2023-02-01T12:55:58;9.60;99.90
10388;DHT22;5240;51.128;4.566;2023-02-01T12:58:34;9.60;99.90
10388;DHT22;5240;51.128;4.566;2023-02-01T13:01:05;9.60;99.90
10388;DHT22;5240;51.128;4.566;2023-02-01T13:03:38;9.60;99.90
10388;DHT22;5240;51.128;4.566;2023-02-01T13:06:10;9.60;99.90
10388;DHT22;5240;51.128;4.566;2023-02-01T13:08:43;9.60;99.90
10388;DHT22;5240;51.128;4.566;2023-02-01T13:11:18;9.60;99.90
10388;DHT22;5240;51.128;4.566;2023-02-01T13:13:55;9.60;99.90
10388;DHT22;5240;51.128;4.566;2023-02-01T13:16:28;9.70;99.90
10388;DHT22;5240;51.128;4.566;2023-02-01T13:19:10;9.80;99.90
10388;DHT22;5240;51.128;4.566;2023-02-01T13:21:45;9.80;99.90
10388;DHT22;5240;51.128;4.566;2023-02-01T13:24:26;9.80;99.90
10388;DHT22;5240;51.128;4.566;2023-02-01T13:26:56;9.80;99.90
10388;DHT22;5240;51.128;4.566;2023-02-01T13:29:24;9.80;99.90
10388;DHT22;5240;51.128;4.566;2023-02-01T13:32:02;9.80;99.90
10388;DHT22;5240;51.128;4.566;2023-02-01T13:34:58;9.80;99.90
10388;DHT22;5240;51.128;4.566;2023-02-01T13:37:42;9.70;99.90
10388;DHT22;5240;51.128;4.566;2023-02-01T13:40:33;9.80;99.90
10388;DHT22;5240;51.128;4.566;2023-02-01T13:43:07;9.70;99.90
10388;DHT22;5240;51.128;4.566;2023-02-01T13:45:46;9.80;99.90
10388;DHT22;5240;51.128;4.566;2023-02-01T13:48:27;9.70;99.90
10388;DHT22;5240;51.128;4.566;2023-02-01T13:50:57;9.70;99.90
10388;DHT22;5240;51.128;4.566;2023-02-01T13:53:28;9.80;99.90
10388;DHT22;5240;51.128;4.566;2023-02-01T13:55:59;9.80;99.90
10388;DHT22;5240;51.128;4.566;2023-02-01T13:58:33;9.70;99.90
10388;DHT22;5240;51.128;4.566;2023-02-01T14:01:34;9.70;99.90
10388;DHT22;5240;51.128;4.566;2023-02-01T14:04:03;9.70;99.90
10388;DHT22;5240;51.128;4.566;2023-02-01T14:06:41;9.70;99.90
10388;DHT22;5240;51.128;4.566;2023-02-01T14:11:56;9.60;99.90
10388;DHT22;5240;51.128;4.566;2023-02-01T14:14:47;9.60;99.90
10388;DHT22;5240;51.128;4.566;2023-02-01T14:17:36;9.60;99.90
10388;DHT22;5240;51.128;4.566;2023-02-01T14:23:26;9.50;99.90
10388;DHT22;5240;51.128;4.566;2023-02-01T14:26:17;9.50;99.90
10388;DHT22;5240;51.128;4.566;2023-02-01T14:29:03;9.50;99.90
10388;DHT22;5240;51.128;4.566;2023-02-01T14:31:44;9.60;99.90
10388;DHT22;5240;51.128;4.566;2023-02-01T14:34:19;9.50;99.90
10388;DHT22;5240;51.128;4.566;2023-02-01T14:36:51;9.50;99.90
10388;DHT22;5240;51.128;4.566;2023-02-01T14:39:27;9.50;99.90
10388;DHT22;5240;51.128;4.566;2023-02-01T14:41:58;9.40;99.90
10388;DHT22;5240;51.128;4.566;2023-02-01T14:44:33;9.40;99.90
10388;DHT22;5240;51.128;4.566;2023-02-01T14:50:22;9.30;99.90
10388;DHT22;5240;51.128;4.566;2023-02-01T14:52:58;9.30;99.90
10388;DHT22;5240;51.128;4.566;2023-02-01T14:55:33;9.30;99.90
10388;DHT22;5240;51.128;4.566;2023-02-01T14:58:05;9.30;99.90
10388;DHT22;5240;51.128;4.566;2023-02-01T15:00:33;9.30;99.90
10388;DHT22;5240;51.128;4.566;2023-02-01T15:03:25;9.30;99.90
10388;DHT22;5240;51.128;4.566;2023-02-01T15:05:55;9.30;99.90
10388;DHT22;5240;51.128;4.566;2023-02-01T15:08:27;9.20;99.90
10388;DHT22;5240;51.128;4.566;2023-02-01T15:10:55;9.20;99.90
10388;DHT22;5240;51.128;4.566;2023-02-01T15:13:25;9.20;99.90
10388;DHT22;5240;51.128;4.566;2023-02-01T15:16:04;9.20;99.90
10388;DHT22;5240;51.128;4.566;2023-02-01T15:18:33;9.20;99.90
10388;DHT22;5240;51.128;4.566;2023-02-01T15:21:02;9.20;99.90
10388;DHT22;5240;51.128;4.566;2023-02-01T15:23:29;9.10;99.90
10388;DHT22;5240;51.128;4.566;2023-02-01T15:25:56;9.10;99.90
10388;DHT22;5240;51.128;4.566;2023-02-01T15:28:25;9.10;99.90
10388;DHT22;5240;51.128;4.566;2023-02-01T15:30:54;9.10;99.90
10388;DHT22;5240;51.128;4.566;2023-02-01T15:33:21;9.00;99.90
10388;DHT22;5240;51.128;4.566;2023-02-01T15:35:51;9.00;99.90
10388;DHT22;5240;51.128;4.566;2023-02-01T15:38:36;9.00;99.90
10388;DHT22;5240;51.128;4.566;2023-02-01T15:41:07;9.00;99.90
10388;DHT22;5240;51.128;4.566;2023-02-01T15:43:37;9.00;99.90
10388;DHT22;5240;51.128;4.566;2023-02-01T15:46:09;9.00;99.90
10388;DHT22;5240;51.128;4.566;2023-02-01T15:48:40;9.00;99.90
10388;DHT22;5240;51.128;4.566;2023-02-01T15:51:15;9.00;99.90
10388;DHT22;5240;51.128;4.566;2023-02-01T15:53:49;9.00;99.90
10388;DHT22;5240;51.128;4.566;2023-02-01T15:56:23;8.90;99.90
10388;DHT22;5240;51.128;4.566;2023-02-01T15:58:53;8.90;99.90
10388;DHT22;5240;51.128;4.566;2023-02-01T16:01:21;8.90;99.90
10388;DHT22;5240;51.128;4.566;2023-02-01T16:03:49;8.90;99.90
10388;DHT22;5240;51.128;4.566;2023-02-01T16:06:30;8.80;99.90
10388;DHT22;5240;51.128;4.566;2023-02-01T16:09:09;8.80;99.90
10388;DHT22;5240;51.128;4.566;2023-02-01T16:11:46;8.80;99.90
10388;DHT22;5240;51.128;4.566;2023-02-01T16:14:14;8.80;99.90
10388;DHT22;5240;51.128;4.566;2023-02-01T16:16:41;8.80;99.90
10388;DHT22;5240;51.128;4.566;2023-02-01T16:19:08;8.80;99.90
10388;DHT22;5240;51.128;4.566;2023-02-01T16:21:37;8.70;99.90
10388;DHT22;5240;51.128;4.566;2023-02-01T16:24:04;8.70;99.90
10388;DHT22;5240;51.128;4.566;2023-02-01T16:26:32;8.80;99.90
10388;DHT22;5240;51.128;4.566;2023-02-01T16:29:00;8.70;99.90
10388;DHT22;5240;51.128;4.566;2023-02-01T16:31:34;8.70;99.90
10388;DHT22;5240;51.128;4.566;2023-02-01T16:34:01;8.70;99.90
10388;DHT22;5240;51.128;4.566;2023-02-01T16:36:28;8.70;99.90
10388;DHT22;5240;51.128;4.566;2023-02-01T16:38:57;8.70;99.90
10388;DHT22;5240;51.128;4.566;2023-02-01T16:41:25;8.70;99.90
10388;DHT22;5240;51.128;4.566;2023-02-01T16:43:54;8.60;99.90
10388;DHT22;5240;51.128;4.566;2023-02-01T16:46:23;8.60;99.90
10388;DHT22;5240;51.128;4.566;2023-02-01T16:48:53;8.60;99.90
10388;DHT22;5240;51.128;4.566;2023-02-01T16:51:21;8.60;99.90
10388;DHT22;5240;51.128;4.566;2023-02-01T16:53:50;8.60;99.90
10388;DHT22;5240;51.128;4.566;2023-02-01T16:56:20;8.70;99.90
10388;DHT22;5240;51.128;4.566;2023-02-01T16:58:47;8.70;99.90
10388;DHT22;5240;51.128;4.566;2023-02-01T17:01:17;8.60;99.90
10388;DHT22;5240;51.128;4.566;2023-02-01T17:03:45;8.70;99.90
10388;DHT22;5240;51.128;4.566;2023-02-01T17:06:15;8.70;99.90
10388;DHT22;5240;51.128;4.566;2023-02-01T17:08:45;8.60;99.90
10388;DHT22;5240;51.128;4.566;2023-02-01T17:11:13;8.70;99.90
10388;DHT22;5240;51.128;4.566;2023-02-01T17:13:42;8.70;99.90